sensor_id;sensor_type;location;lat;lon;timestamp;P1;durP1;ratioP1;P2;durP2;ratioP2
44214;SDS011;29884;47.450;19.124;2023-03-09T00:01:23;3.00;;;1.00;;
44214;SDS011;29884;47.450;19.124;2023-03-09T00:03:51;3.20;;;1.13;;
44214;SDS011;29884;47.450;19.124;2023-03-09T00:06:17;2.42;;;0.90;;
44214;SDS011;29884;47.450;19.124;2023-03-09T00:08:42;1.30;;;0.80;;
44214;SDS011;29884;47.450;19.124;2023-03-09T00:11:08;6.05;;;0.90;;
44214;SDS011;29884;47.450;19.124;2023-03-09T00:13:35;3.85;;;1.00;;
44214;SDS011;29884;47.450;19.124;2023-03-09T00:16:11;2.03;;;1.02;;
44214;SDS011;29884;47.450;19.124;2023-03-09T00:18:38;2.40;;;0.98;;
44214;SDS011;29884;47.450;19.124;2023-03-09T00:21:04;4.20;;;1.02;;
44214;SDS011;29884;47.450;19.124;2023-03-09T00:23:31;3.15;;;1.10;;
44214;SDS011;29884;47.450;19.124;2023-03-09T00:26:04;3.83;;;1.20;;
44214;SDS011;29884;47.450;19.124;2023-03-09T00:28:31;2.95;;;1.17;;
44214;SDS011;29884;47.450;19.124;2023-03-09T00:31:03;3.60;;;1.00;;
44214;SDS011;29884;47.450;19.124;2023-03-09T00:33:31;1.73;;;0.90;;
44214;SDS011;29884;47.450;19.124;2023-03-09T00:35:57;5.50;;;1.15;;
44214;SDS011;29884;47.450;19.124;2023-03-09T00:38:23;2.45;;;1.10;;
44214;SDS011;29884;47.450;19.124;2023-03-09T00:40:49;3.58;;;1.10;;
44214;SDS011;29884;47.450;19.124;2023-03-09T00:43:15;2.65;;;1.08;;
44214;SDS011;29884;47.450;19.124;2023-03-09T00:45:41;2.25;;;1.00;;
44214;SDS011;29884;47.450;19.124;2023-03-09T00:48:07;4.18;;;1.20;;
44214;SDS011;29884;47.450;19.124;2023-03-09T00:50:33;4.47;;;1.13;;
44214;SDS011;29884;47.450;19.124;2023-03-09T00:52:59;3.10;;;1.30;;
44214;SDS011;29884;47.450;19.124;2023-03-09T00:55:24;6.22;;;1.40;;
44214;SDS011;29884;47.450;19.124;2023-03-09T00:57:50;2.90;;;1.40;;
44214;SDS011;29884;47.450;19.124;2023-03-09T01:00:16;4.70;;;1.30;;
44214;SDS011;29884;47.450;19.124;2023-03-09T01:02:42;2.88;;;1.15;;
44214;SDS011;29884;47.450;19.124;2023-03-09T01:05:08;4.10;;;1.40;;
44214;SDS011;29884;47.450;19.124;2023-03-09T01:07:35;3.60;;;1.20;;
44214;SDS011;29884;47.450;19.124;2023-03-09T01:10:01;4.32;;;1.20;;
44214;SDS011;29884;47.450;19.124;2023-03-09T01:12:28;2.83;;;1.17;;
44214;SDS011;29884;47.450;19.124;2023-03-09T01:14:54;2.47;;;1.10;;
44214;SDS011;29884;47.450;19.124;2023-03-09T01:17:20;2.95;;;1.30;;
44214;SDS011;29884;47.450;19.124;2023-03-09T01:19:46;3.47;;;1.20;;
44214;SDS011;29884;47.450;19.124;2023-03-09T01:22:12;3.47;;;1.42;;
44214;SDS011;29884;47.450;19.124;2023-03-09T01:24:38;2.53;;;1.10;;
44214;SDS011;29884;47.450;19.124;2023-03-09T01:27:03;2.05;;;1.17;;
44214;SDS011;29884;47.450;19.124;2023-03-09T01:29:30;3.10;;;1.00;;
44214;SDS011;29884;47.450;19.124;2023-03-09T01:31:56;2.22;;;1.10;;
44214;SDS011;29884;47.450;19.124;2023-03-09T01:34:22;6.22;;;1.30;;
44214;SDS011;29884;47.450;19.124;2023-03-09T01:36:47;3.38;;;1.23;;
44214;SDS011;29884;47.450;19.124;2023-03-09T01:39:13;3.20;;;1.20;;
44214;SDS011;29884;47.450;19.124;2023-03-09T01:41:39;2.08;;;1.13;;
44214;SDS011;29884;47.450;19.124;2023-03-09T01:44:05;2.10;;;1.00;;
44214;SDS011;29884;47.450;19.124;2023-03-09T01:54:28;3.05;;;1.10;;
44214;SDS011;29884;47.450;19.124;2023-03-09T01:57:26;2.53;;;1.15;;
44214;SDS011;29884;47.450;19.124;2023-03-09T02:00:08;2.95;;;1.30;;
44214;SDS011;29884;47.450;19.124;2023-03-09T02:02:39;3.15;;;1.00;;
44214;SDS011;29884;47.450;19.124;2023-03-09T02:05:07;5.78;;;1.45;;
44214;SDS011;29884;47.450;19.124;2023-03-09T02:07:37;2.85;;;1.17;;
44214;SDS011;29884;47.450;19.124;2023-03-09T02:10:12;3.28;;;1.10;;
44214;SDS011;29884;47.450;19.124;2023-03-09T02:13:01;3.10;;;1.40;;
44214;SDS011;29884;47.450;19.124;2023-03-09T02:15:31;3.38;;;1.23;;
44214;SDS011;29884;47.450;19.124;2023-03-09T02:17:57;3.20;;;1.02;;
44214;SDS011;29884;47.450;19.124;2023-03-09T02:24:12;4.80;;;1.15;;
44214;SDS011;29884;47.450;19.124;2023-03-09T02:29:05;2.40;;;1.23;;
44214;SDS011;29884;47.450;19.124;2023-03-09T02:31:31;2.83;;;1.30;;
44214;SDS011;29884;47.450;19.124;2023-03-09T02:33:57;3.65;;;1.10;;
44214;SDS011;29884;47.450;19.124;2023-03-09T02:36:23;6.03;;;1.30;;
44214;SDS011;29884;47.450;19.124;2023-03-09T02:38:49;2.10;;;1.10;;
44214;SDS011;29884;47.450;19.124;2023-03-09T02:41:15;3.00;;;1.10;;
44214;SDS011;29884;47.450;19.124;2023-03-09T02:43:46;4.85;;;1.48;;
44214;SDS011;29884;47.450;19.124;2023-03-09T02:48:41;6.60;;;1.48;;
44214;SDS011;29884;47.450;19.124;2023-03-09T02:51:07;5.57;;;1.88;;
44214;SDS011;29884;47.450;19.124;2023-03-09T02:53:33;3.33;;;1.45;;
44214;SDS011;29884;47.450;19.124;2023-03-09T02:55:59;3.58;;;1.73;;
44214;SDS011;29884;47.450;19.124;2023-03-09T02:58:25;5.45;;;1.55;;
44214;SDS011;29884;47.450;19.124;2023-03-09T03:00:51;3.22;;;1.73;;
44214;SDS011;29884;47.450;19.124;2023-03-09T03:03:16;3.83;;;1.40;;
44214;SDS011;29884;47.450;19.124;2023-03-09T03:05:46;5.25;;;1.90;;
44214;SDS011;29884;47.450;19.124;2023-03-09T03:08:12;8.60;;;2.75;;
44214;SDS011;29884;47.450;19.124;2023-03-09T03:10:38;3.80;;;1.27;;
44214;SDS011;29884;47.450;19.124;2023-03-09T03:13:04;2.60;;;1.27;;
44214;SDS011;29884;47.450;19.124;2023-03-09T03:15:30;3.00;;;1.40;;
44214;SDS011;29884;47.450;19.124;2023-03-09T03:17:55;3.25;;;1.10;;
44214;SDS011;29884;47.450;19.124;2023-03-09T03:20:21;3.88;;;1.30;;
44214;SDS011;29884;47.450;19.124;2023-03-09T03:22:47;3.00;;;1.20;;
44214;SDS011;29884;47.450;19.124;2023-03-09T03:25:13;4.28;;;1.27;;
44214;SDS011;29884;47.450;19.124;2023-03-09T03:27:41;2.00;;;1.00;;
44214;SDS011;29884;47.450;19.124;2023-03-09T03:30:07;2.35;;;1.13;;
44214;SDS011;29884;47.450;19.124;2023-03-09T03:32:33;4.63;;;1.50;;
44214;SDS011;29884;47.450;19.124;2023-03-09T03:34:59;3.47;;;1.33;;
44214;SDS011;29884;47.450;19.124;2023-03-09T03:37:25;4.07;;;1.40;;
44214;SDS011;29884;47.450;19.124;2023-03-09T03:39:51;2.88;;;1.45;;
44214;SDS011;29884;47.450;19.124;2023-03-09T03:42:17;4.15;;;1.33;;
44214;SDS011;29884;47.450;19.124;2023-03-09T03:44:43;5.57;;;1.50;;
44214;SDS011;29884;47.450;19.124;2023-03-09T03:47:08;2.80;;;1.42;;
44214;SDS011;29884;47.450;19.124;2023-03-09T03:49:34;5.00;;;1.30;;
44214;SDS011;29884;47.450;19.124;2023-03-09T03:52:00;4.53;;;1.42;;
44214;SDS011;29884;47.450;19.124;2023-03-09T03:54:26;2.25;;;1.38;;
44214;SDS011;29884;47.450;19.124;2023-03-09T03:56:51;4.40;;;1.58;;
44214;SDS011;29884;47.450;19.124;2023-03-09T03:59:17;3.60;;;1.40;;
44214;SDS011;29884;47.450;19.124;2023-03-09T04:01:43;5.07;;;1.77;;
44214;SDS011;29884;47.450;19.124;2023-03-09T04:04:09;5.40;;;1.50;;
44214;SDS011;29884;47.450;19.124;2023-03-09T04:06:35;5.97;;;2.00;;
44214;SDS011;29884;47.450;19.124;2023-03-09T04:09:00;4.18;;;1.50;;
44214;SDS011;29884;47.450;19.124;2023-03-09T04:11:26;4.18;;;1.90;;
44214;SDS011;29884;47.450;19.124;2023-03-09T04:13:52;3.10;;;1.52;;
44214;SDS011;29884;47.450;19.124;2023-03-09T04:16:18;4.22;;;1.98;;
44214;SDS011;29884;47.450;19.124;2023-03-09T04:18:44;7.05;;;1.73;;
44214;SDS011;29884;47.450;19.124;2023-03-09T04:21:09;3.75;;;1.60;;
44214;SDS011;29884;47.450;19.124;2023-03-09T04:23:35;5.00;;;2.28;;
44214;SDS011;29884;47.450;19.124;2023-03-09T04:26:03;4.88;;;1.67;;
44214;SDS011;29884;47.450;19.124;2023-03-09T04:28:29;5.88;;;2.03;;
44214;SDS011;29884;47.450;19.124;2023-03-09T04:30:55;2.83;;;1.50;;
44214;SDS011;29884;47.450;19.124;2023-03-09T04:33:21;5.40;;;1.52;;
44214;SDS011;29884;47.450;19.124;2023-03-09T04:35:48;4.93;;;1.40;;
44214;SDS011;29884;47.450;19.124;2023-03-09T04:38:14;6.10;;;1.83;;
44214;SDS011;29884;47.450;19.124;2023-03-09T04:40:40;3.85;;;2.05;;
44214;SDS011;29884;47.450;19.124;2023-03-09T04:43:06;5.65;;;1.70;;
44214;SDS011;29884;47.450;19.124;2023-03-09T04:45:32;4.95;;;1.92;;
44214;SDS011;29884;47.450;19.124;2023-03-09T04:47:58;3.22;;;1.27;;
44214;SDS011;29884;47.450;19.124;2023-03-09T04:50:24;3.45;;;1.00;;
44214;SDS011;29884;47.450;19.124;2023-03-09T04:52:50;2.75;;;1.30;;
44214;SDS011;29884;47.450;19.124;2023-03-09T04:55:17;2.70;;;1.30;;
44214;SDS011;29884;47.450;19.124;2023-03-09T04:57:43;4.20;;;1.35;;
44214;SDS011;29884;47.450;19.124;2023-03-09T05:00:09;4.47;;;1.30;;
44214;SDS011;29884;47.450;19.124;2023-03-09T05:02:39;2.88;;;1.20;;
44214;SDS011;29884;47.450;19.124;2023-03-09T05:05:07;4.53;;;1.48;;
44214;SDS011;29884;47.450;19.124;2023-03-09T05:07:34;3.60;;;1.52;;
44214;SDS011;29884;47.450;19.124;2023-03-09T05:10:00;4.95;;;1.40;;
44214;SDS011;29884;47.450;19.124;2023-03-09T05:12:26;4.93;;;1.50;;
44214;SDS011;29884;47.450;19.124;2023-03-09T05:14:56;3.90;;;1.48;;
44214;SDS011;29884;47.450;19.124;2023-03-09T05:17:23;3.50;;;1.35;;
44214;SDS011;29884;47.450;19.124;2023-03-09T05:19:49;7.85;;;1.58;;
44214;SDS011;29884;47.450;19.124;2023-03-09T05:22:15;4.85;;;1.40;;
44214;SDS011;29884;47.450;19.124;2023-03-09T05:24:41;3.50;;;1.80;;
44214;SDS011;29884;47.450;19.124;2023-03-09T05:27:07;6.28;;;1.50;;
44214;SDS011;29884;47.450;19.124;2023-03-09T05:29:33;6.38;;;3.33;;
44214;SDS011;29884;47.450;19.124;2023-03-09T05:31:59;5.45;;;1.98;;
44214;SDS011;29884;47.450;19.124;2023-03-09T05:34:25;3.63;;;1.55;;
44214;SDS011;29884;47.450;19.124;2023-03-09T05:36:51;4.97;;;1.98;;
44214;SDS011;29884;47.450;19.124;2023-03-09T05:39:17;4.75;;;1.92;;
44214;SDS011;29884;47.450;19.124;2023-03-09T05:41:42;5.53;;;1.92;;
44214;SDS011;29884;47.450;19.124;2023-03-09T05:44:08;6.13;;;2.92;;
44214;SDS011;29884;47.450;19.124;2023-03-09T05:46:34;6.70;;;2.63;;
44214;SDS011;29884;47.450;19.124;2023-03-09T05:48:59;2.85;;;1.75;;
44214;SDS011;29884;47.450;19.124;2023-03-09T05:51:26;5.43;;;2.10;;
44214;SDS011;29884;47.450;19.124;2023-03-09T05:53:52;5.32;;;1.88;;
44214;SDS011;29884;47.450;19.124;2023-03-09T05:56:17;7.55;;;2.50;;
44214;SDS011;29884;47.450;19.124;2023-03-09T05:58:43;3.38;;;1.73;;
44214;SDS011;29884;47.450;19.124;2023-03-09T06:01:22;6.35;;;1.80;;
44214;SDS011;29884;47.450;19.124;2023-03-09T06:03:49;5.20;;;2.42;;
44214;SDS011;29884;47.450;19.124;2023-03-09T06:06:15;3.53;;;1.88;;
44214;SDS011;29884;47.450;19.124;2023-03-09T06:08:41;3.75;;;2.00;;
44214;SDS011;29884;47.450;19.124;2023-03-09T06:11:07;5.28;;;2.30;;
44214;SDS011;29884;47.450;19.124;2023-03-09T06:13:34;4.55;;;2.20;;
44214;SDS011;29884;47.450;19.124;2023-03-09T06:16:12;6.03;;;2.20;;
44214;SDS011;29884;47.450;19.124;2023-03-09T06:18:40;6.60;;;2.10;;
44214;SDS011;29884;47.450;19.124;2023-03-09T06:21:07;5.18;;;2.10;;
44214;SDS011;29884;47.450;19.124;2023-03-09T06:23:33;8.38;;;2.20;;
44214;SDS011;29884;47.450;19.124;2023-03-09T06:26:07;4.45;;;2.08;;
44214;SDS011;29884;47.450;19.124;2023-03-09T06:28:34;10.27;;;2.50;;
44214;SDS011;29884;47.450;19.124;2023-03-09T06:31:11;4.00;;;1.95;;
44214;SDS011;29884;47.450;19.124;2023-03-09T06:33:42;6.47;;;2.03;;
44214;SDS011;29884;47.450;19.124;2023-03-09T06:36:11;2.78;;;1.77;;
44214;SDS011;29884;47.450;19.124;2023-03-09T06:38:38;8.77;;;2.00;;
44214;SDS011;29884;47.450;19.124;2023-03-09T06:41:04;7.30;;;1.60;;
44214;SDS011;29884;47.450;19.124;2023-03-09T06:43:30;5.22;;;1.80;;
44214;SDS011;29884;47.450;19.124;2023-03-09T06:45:56;6.95;;;1.77;;
44214;SDS011;29884;47.450;19.124;2023-03-09T06:48:22;9.82;;;1.83;;
44214;SDS011;29884;47.450;19.124;2023-03-09T06:50:47;5.10;;;1.80;;
44214;SDS011;29884;47.450;19.124;2023-03-09T06:53:13;6.10;;;1.60;;
44214;SDS011;29884;47.450;19.124;2023-03-09T06:55:40;4.72;;;1.83;;
44214;SDS011;29884;47.450;19.124;2023-03-09T06:58:06;6.05;;;1.95;;
44214;SDS011;29884;47.450;19.124;2023-03-09T07:00:32;5.22;;;1.77;;
44214;SDS011;29884;47.450;19.124;2023-03-09T07:03:03;5.15;;;2.15;;
44214;SDS011;29884;47.450;19.124;2023-03-09T07:05:29;4.63;;;1.85;;
44214;SDS011;29884;47.450;19.124;2023-03-09T07:07:55;4.63;;;2.03;;
44214;SDS011;29884;47.450;19.124;2023-03-09T07:10:21;8.57;;;2.20;;
44214;SDS011;29884;47.450;19.124;2023-03-09T07:12:47;10.60;;;2.50;;
44214;SDS011;29884;47.450;19.124;2023-03-09T07:15:13;6.47;;;2.90;;
44214;SDS011;29884;47.450;19.124;2023-03-09T07:17:40;5.38;;;2.58;;
44214;SDS011;29884;47.450;19.124;2023-03-09T07:20:07;5.55;;;2.10;;
44214;SDS011;29884;47.450;19.124;2023-03-09T07:22:37;8.48;;;2.10;;
44214;SDS011;29884;47.450;19.124;2023-03-09T07:25:03;7.00;;;1.67;;
44214;SDS011;29884;47.450;19.124;2023-03-09T07:27:29;9.10;;;1.50;;
44214;SDS011;29884;47.450;19.124;2023-03-09T07:29:56;4.47;;;1.50;;
44214;SDS011;29884;47.450;19.124;2023-03-09T07:32:22;4.63;;;1.52;;
44214;SDS011;29884;47.450;19.124;2023-03-09T07:34:48;4.97;;;1.70;;
44214;SDS011;29884;47.450;19.124;2023-03-09T07:37:14;6.95;;;1.52;;
44214;SDS011;29884;47.450;19.124;2023-03-09T07:39:40;5.32;;;1.33;;
44214;SDS011;29884;47.450;19.124;2023-03-09T07:42:06;3.53;;;1.25;;
44214;SDS011;29884;47.450;19.124;2023-03-09T07:44:31;2.50;;;1.05;;
44214;SDS011;29884;47.450;19.124;2023-03-09T07:46:57;6.20;;;1.23;;
44214;SDS011;29884;47.450;19.124;2023-03-09T07:49:23;6.22;;;1.10;;
44214;SDS011;29884;47.450;19.124;2023-03-09T07:51:49;4.38;;;1.10;;
44214;SDS011;29884;47.450;19.124;2023-03-09T07:54:14;2.90;;;1.20;;
44214;SDS011;29884;47.450;19.124;2023-03-09T07:56:41;5.38;;;1.50;;
44214;SDS011;29884;47.450;19.124;2023-03-09T07:59:16;3.42;;;1.30;;
44214;SDS011;29884;47.450;19.124;2023-03-09T08:01:43;6.95;;;1.10;;
44214;SDS011;29884;47.450;19.124;2023-03-09T08:04:08;3.80;;;1.13;;
44214;SDS011;29884;47.450;19.124;2023-03-09T08:06:36;6.63;;;1.30;;
44214;SDS011;29884;47.450;19.124;2023-03-09T08:09:04;4.60;;;1.20;;
44214;SDS011;29884;47.450;19.124;2023-03-09T08:11:33;3.80;;;1.00;;
44214;SDS011;29884;47.450;19.124;2023-03-09T08:13:59;2.83;;;0.98;;
44214;SDS011;29884;47.450;19.124;2023-03-09T08:16:25;3.78;;;1.10;;
44214;SDS011;29884;47.450;19.124;2023-03-09T08:18:51;5.88;;;1.02;;
44214;SDS011;29884;47.450;19.124;2023-03-09T08:21:16;5.20;;;1.10;;
44214;SDS011;29884;47.450;19.124;2023-03-09T08:23:42;2.95;;;0.98;;
44214;SDS011;29884;47.450;19.124;2023-03-09T08:26:12;3.92;;;1.20;;
44214;SDS011;29884;47.450;19.124;2023-03-09T08:28:39;5.95;;;1.20;;
44214;SDS011;29884;47.450;19.124;2023-03-09T08:31:08;4.10;;;1.10;;
44214;SDS011;29884;47.450;19.124;2023-03-09T08:33:35;3.25;;;0.95;;
44214;SDS011;29884;47.450;19.124;2023-03-09T08:36:22;3.90;;;1.10;;
44214;SDS011;29884;47.450;19.124;2023-03-09T08:38:48;8.02;;;1.10;;
44214;SDS011;29884;47.450;19.124;2023-03-09T08:41:14;3.38;;;1.20;;
44214;SDS011;29884;47.450;19.124;2023-03-09T08:43:41;2.40;;;0.90;;
44214;SDS011;29884;47.450;19.124;2023-03-09T08:46:06;4.85;;;1.00;;
44214;SDS011;29884;47.450;19.124;2023-03-09T08:48:33;4.20;;;0.90;;
44214;SDS011;29884;47.450;19.124;2023-03-09T08:50:59;3.65;;;1.05;;
44214;SDS011;29884;47.450;19.124;2023-03-09T08:53:25;35.92;;;2.90;;
44214;SDS011;29884;47.450;19.124;2023-03-09T08:55:51;19.58;;;1.90;;
44214;SDS011;29884;47.450;19.124;2023-03-09T08:58:17;1.85;;;0.80;;
44214;SDS011;29884;47.450;19.124;2023-03-09T09:00:43;4.45;;;0.93;;
44214;SDS011;29884;47.450;19.124;2023-03-09T09:03:09;2.83;;;0.90;;
44214;SDS011;29884;47.450;19.124;2023-03-09T09:05:35;1.80;;;0.70;;
44214;SDS011;29884;47.450;19.124;2023-03-09T09:08:01;2.50;;;0.85;;
44214;SDS011;29884;47.450;19.124;2023-03-09T09:10:27;1.70;;;0.90;;
44214;SDS011;29884;47.450;19.124;2023-03-09T09:12:53;3.55;;;1.20;;
44214;SDS011;29884;47.450;19.124;2023-03-09T09:15:19;2.65;;;0.98;;
44214;SDS011;29884;47.450;19.124;2023-03-09T09:17:45;4.20;;;0.98;;
44214;SDS011;29884;47.450;19.124;2023-03-09T09:20:11;2.00;;;0.77;;
44214;SDS011;29884;47.450;19.124;2023-03-09T09:22:39;4.53;;;0.90;;
44214;SDS011;29884;47.450;19.124;2023-03-09T09:25:07;4.15;;;0.70;;
44214;SDS011;29884;47.450;19.124;2023-03-09T09:27:33;1.73;;;0.60;;
44214;SDS011;29884;47.450;19.124;2023-03-09T09:30:00;6.05;;;0.75;;
44214;SDS011;29884;47.450;19.124;2023-03-09T09:32:27;1.48;;;0.50;;
44214;SDS011;29884;47.450;19.124;2023-03-09T09:34:53;4.65;;;0.70;;
44214;SDS011;29884;47.450;19.124;2023-03-09T09:37:19;2.13;;;0.60;;
44214;SDS011;29884;47.450;19.124;2023-03-09T09:39:45;1.48;;;0.70;;
44214;SDS011;29884;47.450;19.124;2023-03-09T09:42:22;4.63;;;0.80;;
44214;SDS011;29884;47.450;19.124;2023-03-09T09:44:48;2.17;;;0.65;;
44214;SDS011;29884;47.450;19.124;2023-03-09T09:47:18;2.42;;;0.70;;
44214;SDS011;29884;47.450;19.124;2023-03-09T09:49:48;3.58;;;0.77;;
44214;SDS011;29884;47.450;19.124;2023-03-09T09:52:19;2.15;;;0.70;;
44214;SDS011;29884;47.450;19.124;2023-03-09T09:55:15;1.70;;;0.68;;
44214;SDS011;29884;47.450;19.124;2023-03-09T09:57:48;3.45;;;0.60;;
44214;SDS011;29884;47.450;19.124;2023-03-09T10:00:40;3.05;;;0.80;;
44214;SDS011;29884;47.450;19.124;2023-03-09T10:05:44;1.45;;;0.70;;
44214;SDS011;29884;47.450;19.124;2023-03-09T10:10:47;2.30;;;0.70;;
44214;SDS011;29884;47.450;19.124;2023-03-09T10:13:15;1.85;;;0.55;;
44214;SDS011;29884;47.450;19.124;2023-03-09T10:15:45;1.40;;;0.60;;
44214;SDS011;29884;47.450;19.124;2023-03-09T10:18:13;2.15;;;0.60;;
44214;SDS011;29884;47.450;19.124;2023-03-09T10:20:42;3.70;;;0.60;;
44214;SDS011;29884;47.450;19.124;2023-03-09T10:23:15;2.88;;;0.60;;
44214;SDS011;29884;47.450;19.124;2023-03-09T10:25:47;7.60;;;0.70;;
44214;SDS011;29884;47.450;19.124;2023-03-09T10:28:19;5.90;;;0.80;;
44214;SDS011;29884;47.450;19.124;2023-03-09T10:33:41;1.47;;;0.40;;
44214;SDS011;29884;47.450;19.124;2023-03-09T10:36:30;2.53;;;0.45;;
44214;SDS011;29884;47.450;19.124;2023-03-09T10:39:10;2.17;;;0.50;;
44214;SDS011;29884;47.450;19.124;2023-03-09T10:41:39;3.13;;;0.50;;
44214;SDS011;29884;47.450;19.124;2023-03-09T10:44:06;1.38;;;0.50;;
44214;SDS011;29884;47.450;19.124;2023-03-09T10:46:40;1.02;;;0.47;;
44214;SDS011;29884;47.450;19.124;2023-03-09T10:49:24;1.83;;;0.47;;
44214;SDS011;29884;47.450;19.124;2023-03-09T10:54:24;2.17;;;0.50;;
44214;SDS011;29884;47.450;19.124;2023-03-09T10:57:02;2.72;;;0.60;;
44214;SDS011;29884;47.450;19.124;2023-03-09T10:59:53;4.30;;;0.73;;
44214;SDS011;29884;47.450;19.124;2023-03-09T11:02:31;5.65;;;0.52;;
44214;SDS011;29884;47.450;19.124;2023-03-09T11:05:12;2.65;;;0.40;;
44214;SDS011;29884;47.450;19.124;2023-03-09T11:07:56;3.13;;;0.50;;
44214;SDS011;29884;47.450;19.124;2023-03-09T11:10:24;2.88;;;0.50;;
44214;SDS011;29884;47.450;19.124;2023-03-09T11:12:51;5.45;;;0.45;;
44214;SDS011;29884;47.450;19.124;2023-03-09T11:17:46;1.38;;;0.43;;
44214;SDS011;29884;47.450;19.124;2023-03-09T11:20:24;1.88;;;0.50;;
44214;SDS011;29884;47.450;19.124;2023-03-09T11:31:24;2.42;;;0.80;;
44214;SDS011;29884;47.450;19.124;2023-03-09T11:33:55;4.10;;;0.65;;
44214;SDS011;29884;47.450;19.124;2023-03-09T11:36:29;3.22;;;1.00;;
44214;SDS011;29884;47.450;19.124;2023-03-09T11:39:02;9.00;;;1.40;;
44214;SDS011;29884;47.450;19.124;2023-03-09T11:41:33;10.25;;;1.10;;
44214;SDS011;29884;47.450;19.124;2023-03-09T11:44:05;4.15;;;0.80;;
44214;SDS011;29884;47.450;19.124;2023-03-09T11:46:37;3.25;;;0.70;;
44214;SDS011;29884;47.450;19.124;2023-03-09T11:49:06;1.30;;;0.65;;
44214;SDS011;29884;47.450;19.124;2023-03-09T11:51:44;2.58;;;0.85;;
44214;SDS011;29884;47.450;19.124;2023-03-09T11:56:51;3.80;;;0.90;;
44214;SDS011;29884;47.450;19.124;2023-03-09T11:59:23;9.13;;;0.93;;
44214;SDS011;29884;47.450;19.124;2023-03-09T12:03:04;3.42;;;0.60;;
44214;SDS011;29884;47.450;19.124;2023-03-09T12:05:20;6.38;;;0.82;;
44214;SDS011;29884;47.450;19.124;2023-03-09T12:07:53;4.80;;;0.70;;
44214;SDS011;29884;47.450;19.124;2023-03-09T12:13:30;1.80;;;0.60;;
44214;SDS011;29884;47.450;19.124;2023-03-09T12:16:02;3.83;;;0.80;;
44214;SDS011;29884;47.450;19.124;2023-03-09T12:18:32;5.60;;;0.70;;
44214;SDS011;29884;47.450;19.124;2023-03-09T12:21:04;3.83;;;0.75;;
44214;SDS011;29884;47.450;19.124;2023-03-09T12:26:02;9.02;;;0.70;;
44214;SDS011;29884;47.450;19.124;2023-03-09T12:31:36;6.00;;;0.60;;
44214;SDS011;29884;47.450;19.124;2023-03-09T12:34:04;3.88;;;0.60;;
44214;SDS011;29884;47.450;19.124;2023-03-09T12:36:36;5.07;;;0.70;;
44214;SDS011;29884;47.450;19.124;2023-03-09T12:39:29;5.38;;;0.50;;
44214;SDS011;29884;47.450;19.124;2023-03-09T12:42:02;12.13;;;0.80;;
44214;SDS011;29884;47.450;19.124;2023-03-09T12:50:23;3.65;;;0.60;;
44214;SDS011;29884;47.450;19.124;2023-03-09T13:00:52;4.20;;;0.45;;
44214;SDS011;29884;47.450;19.124;2023-03-09T13:03:27;4.53;;;0.50;;
44214;SDS011;29884;47.450;19.124;2023-03-09T13:05:57;2.70;;;0.40;;
44214;SDS011;29884;47.450;19.124;2023-03-09T13:08:32;4.28;;;0.40;;
44214;SDS011;29884;47.450;19.124;2023-03-09T13:13:49;7.20;;;0.60;;
44214;SDS011;29884;47.450;19.124;2023-03-09T13:24:12;3.20;;;0.32;;
44214;SDS011;29884;47.450;19.124;2023-03-09T13:26:45;4.53;;;0.30;;
44214;SDS011;29884;47.450;19.124;2023-03-09T13:29:21;3.58;;;0.30;;
44214;SDS011;29884;47.450;19.124;2023-03-09T13:31:49;14.45;;;0.70;;
44214;SDS011;29884;47.450;19.124;2023-03-09T13:34:26;4.72;;;0.40;;
44214;SDS011;29884;47.450;19.124;2023-03-09T13:37:02;1.40;;;0.40;;
44214;SDS011;29884;47.450;19.124;2023-03-09T13:39:38;2.05;;;0.40;;
44214;SDS011;29884;47.450;19.124;2023-03-09T13:42:11;6.60;;;0.60;;
44214;SDS011;29884;47.450;19.124;2023-03-09T13:44:44;1.77;;;0.30;;
44214;SDS011;29884;47.450;19.124;2023-03-09T13:47:17;5.43;;;0.30;;
44214;SDS011;29884;47.450;19.124;2023-03-09T13:49:48;5.28;;;0.30;;
44214;SDS011;29884;47.450;19.124;2023-03-09T13:52:14;5.72;;;0.60;;
44214;SDS011;29884;47.450;19.124;2023-03-09T13:54:51;0.57;;;0.20;;
44214;SDS011;29884;47.450;19.124;2023-03-09T13:57:20;2.55;;;0.30;;
44214;SDS011;29884;47.450;19.124;2023-03-09T14:00:00;3.63;;;0.20;;
44214;SDS011;29884;47.450;19.124;2023-03-09T14:02:32;3.30;;;0.63;;
44214;SDS011;29884;47.450;19.124;2023-03-09T14:05:01;6.72;;;0.20;;
44214;SDS011;29884;47.450;19.124;2023-03-09T14:07:34;3.90;;;1.05;;
44214;SDS011;29884;47.450;19.124;2023-03-09T14:10:04;3.35;;;0.40;;
44214;SDS011;29884;47.450;19.124;2023-03-09T14:12:34;1.05;;;0.30;;
44214;SDS011;29884;47.450;19.124;2023-03-09T14:15:03;0.90;;;0.20;;
44214;SDS011;29884;47.450;19.124;2023-03-09T14:17:31;4.63;;;0.50;;
44214;SDS011;29884;47.450;19.124;2023-03-09T14:19:58;2.10;;;0.40;;
44214;SDS011;29884;47.450;19.124;2023-03-09T14:22:27;2.05;;;0.20;;
44214;SDS011;29884;47.450;19.124;2023-03-09T14:24:54;2.20;;;0.30;;
44214;SDS011;29884;47.450;19.124;2023-03-09T14:27:33;3.15;;;0.22;;
44214;SDS011;29884;47.450;19.124;2023-03-09T14:36:03;0.88;;;0.20;;
44214;SDS011;29884;47.450;19.124;2023-03-09T14:38:40;1.00;;;0.10;;
44214;SDS011;29884;47.450;19.124;2023-03-09T14:41:19;3.00;;;0.40;;
44214;SDS011;29884;47.450;19.124;2023-03-09T14:43:47;1.98;;;0.30;;
44214;SDS011;29884;47.450;19.124;2023-03-09T14:46:14;2.53;;;0.52;;
44214;SDS011;29884;47.450;19.124;2023-03-09T14:48:46;2.45;;;0.40;;
44214;SDS011;29884;47.450;19.124;2023-03-09T14:51:27;3.15;;;0.40;;
44214;SDS011;29884;47.450;19.124;2023-03-09T14:56:26;2.85;;;0.30;;
44214;SDS011;29884;47.450;19.124;2023-03-09T14:58:53;1.58;;;0.40;;
44214;SDS011;29884;47.450;19.124;2023-03-09T15:01:19;3.42;;;0.30;;
44214;SDS011;29884;47.450;19.124;2023-03-09T15:03:46;3.55;;;0.28;;
44214;SDS011;29884;47.450;19.124;2023-03-09T15:06:12;2.03;;;0.30;;
44214;SDS011;29884;47.450;19.124;2023-03-09T15:08:38;2.08;;;0.20;;
44214;SDS011;29884;47.450;19.124;2023-03-09T15:11:04;4.18;;;0.40;;
44214;SDS011;29884;47.450;19.124;2023-03-09T15:13:31;7.25;;;0.30;;
44214;SDS011;29884;47.450;19.124;2023-03-09T15:15:58;5.38;;;0.30;;
44214;SDS011;29884;47.450;19.124;2023-03-09T15:18:23;9.43;;;0.38;;
44214;SDS011;29884;47.450;19.124;2023-03-09T15:20:49;3.83;;;0.30;;
44214;SDS011;29884;47.450;19.124;2023-03-09T15:23:15;8.15;;;0.28;;
44214;SDS011;29884;47.450;19.124;2023-03-09T15:25:41;9.20;;;0.40;;
44214;SDS011;29884;47.450;19.124;2023-03-09T15:28:08;4.95;;;0.20;;
44214;SDS011;29884;47.450;19.124;2023-03-09T15:30:34;2.22;;;0.28;;
44214;SDS011;29884;47.450;19.124;2023-03-09T15:33:01;4.10;;;0.60;;
44214;SDS011;29884;47.450;19.124;2023-03-09T15:35:27;6.90;;;0.40;;
44214;SDS011;29884;47.450;19.124;2023-03-09T15:37:53;3.28;;;0.30;;
44214;SDS011;29884;47.450;19.124;2023-03-09T15:40:18;6.65;;;0.40;;
44214;SDS011;29884;47.450;19.124;2023-03-09T15:42:45;6.38;;;0.30;;
44214;SDS011;29884;47.450;19.124;2023-03-09T15:45:11;8.82;;;0.70;;
44214;SDS011;29884;47.450;19.124;2023-03-09T15:47:39;3.80;;;0.28;;
44214;SDS011;29884;47.450;19.124;2023-03-09T15:50:05;1.98;;;0.30;;
44214;SDS011;29884;47.450;19.124;2023-03-09T15:52:35;2.55;;;0.55;;
44214;SDS011;29884;47.450;19.124;2023-03-09T15:55:02;4.63;;;0.43;;
44214;SDS011;29884;47.450;19.124;2023-03-09T15:57:28;1.75;;;0.40;;
44214;SDS011;29884;47.450;19.124;2023-03-09T15:59:57;2.95;;;0.35;;
44214;SDS011;29884;47.450;19.124;2023-03-09T16:02:23;1.20;;;0.40;;
44214;SDS011;29884;47.450;19.124;2023-03-09T16:04:49;4.25;;;0.50;;